Terminal Aerodrome Forecast
Issued by NWS

Home | Current Version | Previous Version | Text Only | Print | Product List | Glossary On
Versions: 1 2 3 4 5 6 7 8 9 10 11 12 13 14 15 16 17
000
FTUS46 KOTX 302335
TAFSFF
TAF
KSFF 302335Z 3100/3124 09004KT P6SM BKN090 OVC200
     FM310800 12005KT P6SM BKN150 OVC250
     FM311600 16003KT P6SM VCSH BKN070 OVC100
     FM312000 20008KT P6SM -RA BKN045 OVC080=

USA.gov is the U.S. government's official web portal to all federal, state and local government web resources and services.